Station: MT GAMBIER

  Atmospheric Gas Attenuation - ITU Rec 676-11   --------------- db/100km ---------------
Date Time Temp RH % AH g/m3 Dew Point Wind Direction Speed kph Gust kph Barometer mB Rainfall Since 9am 24GHz 47GHz 76GHz 122GHz 134GHz 241GHz
05 12:00 18 67 10.29 11.8 28 48 995 0.2 23.0 26.7 43.5 114.7 113.3 391.3
05 11:50 18.5 59 9.33 10.3 28 39 995 0.2 20.9 25.0 39.5 104.0 100.3 345.9
05 11:40 17.4 66 9.78 11 22 26 995.1 0.2 22.0 26.1 41.8 110.1 107.5 371.0
05 11:30 17.4 60 8.89 9.6 30 43 995.4 0.2 20.1 24.7 38.4 101.0 96.2 331.4
05 11:20 18.8 50 8.05 8.2 30 35 995.4 0.2 18.2 23.0 34.6 90.9 84.3 289.9
05 11:10 22.1 29 5.66 3.3 28 33 994.9 0 13.1 19.0 25.3 66.1 54.7 186.5
05 11:00 22.2 28 5.5 2.8 35 57 995 0 12.7 18.8 24.8 64.7 53.0 180.5
05 10:50 22.6 26 5.22 2.1 32 37 994.8 0 12.1 18.3 23.8 62.0 49.9 169.5
05 10:40 22.3 28 5.53 2.9 28 35 994.5 0 12.8 18.8 24.8 64.8 53.2 181.2
05 10:30 22.6 26 5.22 2.1 37 52 994.7 0 12.1 18.3 23.8 62.0 49.9 169.5
05 10:20 22.3 27 5.33 2.4 32 39 994.6 0 12.4 18.5 24.2 63.1 51.2 174.0
05 10:10 22.1 27 5.27 2.2 33 37 995 0 12.2 18.5 24.1 62.8 50.7 172.3
05 10:00 22 27 5.24 2.2 37 56 995.8 0 12.2 18.5 24.1 62.7 50.5 171.6
05 09:50 21.9 28 5.4 2.6 37 46 995.8 0 12.5 18.7 24.6 64.1 52.2 177.6
05 09:40 21.8 28 5.37 2.5 41 54 995.6 0 12.5 18.7 24.5 63.9 51.9 176.7
05 09:30 21.7 29 5.53 2.9 33 46 996.4 0 12.8 19.0 25.1 65.4 53.7 182.9
05 09:20 21.7 29 5.53 2.9 35 41 996.2 0 12.8 19.0 25.1 65.4 53.7 182.8
05 09:10 21.5 30 5.66 3.2 30 35 996.3 0 13.1 19.2 25.5 66.7 55.2 188.1
05 09:00 21.2 30 5.56 3 35 48 996.3 0 12.9 19.1 25.3 66.1 54.4 185.1
05 08:50 21.1 30 5.53 2.9 32 35 996.1 0 12.8 19.1 25.2 65.9 54.1 184.1
05 08:40 21.1 30 5.53 2.9 43 52 996 0 12.8 19.1 25.2 65.9 54.1 184.1
05 08:30 21.1 30 5.53 2.9 48 63 996.1 0 12.8 19.1 25.2 65.9 54.1 184.1
05 08:20 21.2 30 5.56 3 46 59 996.4 0 12.9 19.1 25.3 66.1 54.4 185.1
05 08:10 21 29 5.31 2.3 56 65 996 0 12.4 18.8 24.6 64.1 51.8 176.2
05 08:00 20.8 30 5.43 2.6 41 56 996.5 0 12.6 19.0 25.0 65.3 53.3 181.2
05 07:50 20.8 30 5.43 2.6 41 50 997.5 0 12.6 19.0 25.1 65.4 53.3 181.3
05 07:40 20.8 30 5.43 2.6 52 57 996.7 0 12.6 19.0 25.0 65.3 53.3 181.2
05 07:30 20.8 30 5.43 2.6 37 50 997.7 0 12.6 19.1 25.1 65.4 53.3 181.4
05 07:20 20.2 33 5.77 3.4 33 39 997.6 0 13.3 19.6 26.3 68.8 57.3 195.4
05 07:10 20.3 32 5.63 3.1 28 32 998.4 0 13.1 19.4 25.9 67.6 55.8 190.1
05 07:00 20.3 32 5.63 3.1 39 57 998.6 0 13.1 19.4 25.9 67.6 55.8 190.1
05 06:50 19.8 37 6.32 4.7 48 56 998.8 0 14.5 20.5 28.3 74.1 63.7 217.7
05 06:40 20.2 33 5.77 3.4 37 43 999.4 0 13.3 19.7 26.4 68.9 57.4 195.7
05 06:30 19.5 38 6.38 4.8 26 33 1000.2 0 14.7 20.7 28.7 75.0 64.7 221.1
05 06:20 19.4 39 6.51 5.1 30 32 1000 0 14.9 20.9 29.2 76.3 66.2 226.5
05 06:10 19.3 40 6.63 5.4 28 32 999.9 0 15.2 21.1 29.6 77.5 67.6 231.5
05 06:00 18.9 41 6.64 5.4 28 35 1000.7 0 15.2 21.2 29.8 78.0 68.1 233.2
05 05:50 19.1 42 6.88 5.9 30 32 1001 0 15.7 21.5 30.6 80.0 70.7 242.2
05 05:40 18.7 45 7.2 6.5 22 28 1001.1 0 16.4 22.0 31.8 83.4 74.8 256.4
05 05:30 19 46 7.5 7.1 32 52 1002.4 0 17.0 22.4 32.8 86.1 78.1 268.1
05 05:20 19.5 40 6.71 5.6 33 39 1002.2 0 15.3 21.2 29.9 78.2 68.5 234.5
05 05:10 20.4 34 6.01 4 43 52 1001.7 0 13.8 20.0 27.2 71.0 60.0 204.8
05 04:50 19.4 40 6.67 5.5 30 33 1000.6 0 15.3 21.1 29.7 77.8 68.0 232.9
05 04:40 19 42 6.84 5.8 35 39 1000.2 0 15.6 21.4 30.4 79.7 70.3 240.8
05 04:30 19 43 7.01 6.2 26 33 1000.7 0 16.0 21.7 31.1 81.3 72.3 247.7
05 04:20 18.6 47 7.48 7.1 24 32 1001 0 17.0 22.5 32.9 86.2 78.1 268.2
05 04:10 18.3 48 7.5 7.1 26 30 1001.2 0 17.1 22.6 33.1 86.7 78.7 270.1
05 04:00 18 52 7.99 8 22 28 1001.3 0 18.1 23.4 35.0 91.8 84.9 291.7
05 03:50 17.5 57 8.5 8.9 22 26 1001.6 0 19.2 24.3 37.1 97.5 91.7 315.6
05 03:40 17.1 60 8.73 9.3 19 24 1001.8 0 19.7 24.7 38.2 100.4 95.1 327.3
05 03:30 16.7 63 8.95 9.6 20 26 1002.1 0 20.2 25.2 39.2 103.2 98.4 338.9
05 03:20 16.4 66 9.21 10 20 22 1002.4 0 20.8 25.7 40.4 106.3 102.1 351.9
05 03:10 16 70 9.54 10.5 17 17 1002.8 0 21.5 26.4 42.0 110.4 107.0 369.0
05 03:00 15.2 75 9.73 10.8 15 17 1003 0 22.0 26.9 43.2 113.6 110.7 381.7
05 02:50 15 78 10 11.2 15 17 1003.1 0 22.5 27.4 44.4 116.9 114.6 395.4
05 02:40 14.6 81 10.14 11.4 15 17 1003.4 0 22.9 27.8 45.2 119.1 117.1 404.3
05 02:30 14.3 82 10.07 11.3 17 22 1003.6 0 22.7 27.8 45.1 118.8 116.7 402.5
05 02:20 14.7 81 10.2 11.5 19 20 1003.9 0 23.0 27.9 45.4 119.6 117.9 406.8
05 02:10 14.9 81 10.32 11.7 19 19 1004.2 0 23.2 28.1 45.8 120.7 119.2 411.6
05 02:00 14.8 82 10.39 11.8 17 19 1004.3 0 23.4 28.2 46.2 121.6 120.4 415.5
05 01:50 14.6 83 10.39 11.7 15 17 1004.5 0 23.4 28.3 46.3 122.0 120.7 416.7
05 01:40 14.4 84 10.38 11.7 17 20 1004.7 0 23.4 28.3 46.4 122.2 120.9 417.3
05 01:30 14.4 84 10.38 11.7 17 20 1004.9 0 23.4 28.3 46.4 122.2 120.9 417.4
05 01:20 14 85 10.25 11.5 19 20 1005.1 0 23.1 28.3 46.1 121.4 119.8 413.3
05 01:10 14.4 84 10.38 11.7 17 19 1005.3 0 23.4 28.4 46.4 122.3 120.9 417.5
05 01:00 14.4 85 10.51 11.9 15 20 1005.9 0 23.7 28.6 47.0 123.8 122.8 424.0
05 00:50 14.4 85 10.51 11.9 15 15 1006.3 0 23.7 28.6 47.0 123.9 122.9 424.2
05 00:40 14.3 84 10.32 11.6 17 19 1006.3 0 23.3 28.3 46.3 121.9 120.4 415.5
05 00:30 14.2 84 10.26 11.5 19 26 1006.7 0 23.1 28.3 46.1 121.4 119.7 413.2
05 00:20 14.6 83 10.39 11.7 24 28 1007 0 23.4 28.4 46.4 122.3 120.9 417.5
05 00:10 14.9 82 10.45 11.9 22 26 1007.5 0 23.5 28.4 46.5 122.5 121.3 418.9
05 00:00 14.7 83 10.45 11.8 17 26 1007.7 0 23.5 28.5 46.7 122.9 121.7 420.1
04 23:50 14.6 83 10.39 11.7 15 19 1007.9 0 23.4 28.4 46.5 122.4 121.0 417.8
04 23:40 14.7 82 10.32 11.7 19 22 1008.1 0 23.2 28.3 46.1 121.5 119.9 413.9
04 23:30 14.8 82 10.39 11.8 19 26 1008.6 0 23.4 28.4 46.4 122.1 120.8 416.9
04 23:20 14.9 82 10.45 11.9 20 26 1008.9 0 23.5 28.5 46.6 122.7 121.5 419.4
04 23:10 14.7 82 10.32 11.7 19 24 1009 0 23.2 28.3 46.2 121.6 120.0 414.2
04 23:00 14.7 82 10.32 11.7 17 22 1009.4 0 23.2 28.3 46.2 121.6 120.0 414.3
04 22:50 14.5 82 10.2 11.5 17 19 1009.8 0 23.0 28.2 45.8 120.6 118.7 409.7
04 22:40 14.5 81 10.07 11.3 17 19 1010.1 0 22.7 28.0 45.3 119.2 117.0 403.6
04 22:30 14.6 80 10.01 11.2 15 19 1010.5 0 22.6 27.9 45.0 118.4 116.0 400.3
04 22:20 14.6 80 10.01 11.2 15 17 1010.7 0 22.6 27.9 45.0 118.4 116.0 400.4
04 22:10 14.2 79 9.65 10.6 15 17 1010.9 0 21.8 27.4 43.8 115.1 111.7 385.2
04 22:00 13.9 78 9.35 10.1 11 15 1011 0 21.2 27.0 42.7 112.2 108.1 372.5
04 21:50 14.1 76 9.22 9.9 11 13 1011.3 0 20.9 26.7 42.1 110.5 106.1 365.5
04 21:40 14.3 76 9.34 10.1 11 11 1011.5 0 21.2 26.9 42.5 111.6 107.5 370.3
04 21:30 14.7 76 9.57 10.5 6 7 1011.9 0 21.6 27.2 43.2 113.6 110.0 379.3
04 21:20 14.8 76 9.63 10.6 6 7 1012 0 21.7 27.2 43.4 114.1 110.7 381.7
04 21:10 14.8 76 9.63 10.6 9 9 1011.9 0 21.7 27.2 43.4 114.1 110.7 381.6
04 21:00 14.7 77 9.69 10.7 9 9 1012.2 0 21.9 27.4 43.7 114.9 111.7 385.1
04 20:50 14.6 78 9.76 10.8 9 9 1012.2 0 22.0 27.5 44.1 115.8 112.8 388.9
04 20:40 14.9 77 9.81 10.9 11 11 1012.3 0 22.1 27.5 44.1 116.0 113.0 389.8
04 20:30 15 75 9.62 10.6 11 13 1012.4 0 21.7 27.2 43.3 113.7 110.3 380.4
04 20:20 15.9 72 9.75 10.9 11 11 1012.1 0 21.9 27.1 43.3 113.8 110.7 382.0
04 20:10 16.2 71 9.79 10.9 11 11 1012.1 0 22.0 27.1 43.3 113.8 110.8 382.4
04 20:00 16.9 68 9.78 11 11 13 1012.1 0 22.0 26.8 42.9 112.7 109.7 378.5
04 19:50 17.6 65 9.75 10.9 13 15 1012.1 0 21.9 26.6 42.4 111.4 108.3 373.8
04 19:40 18.2 62 9.64 10.8 11 13 1012.2 0 21.6 26.2 41.6 109.4 106.1 366.0
04 19:30 18.9 60 9.72 11 9 11 1012.3 0 21.7 26.2 41.6 109.3 106.2 366.4
04 19:20 19.3 57 9.45 10.6 11 13 1012 0 21.1 25.6 40.3 105.9 102.2 352.5

Last Refresh: 05-Dec-2020 12:14:43

Most of the information presented on this site is sourced from the Bureau of Meteorology.  Copyright in all material sourced from the Bureau of Meteorology resides with the Commonwealth of Australia.